Hoback Junction, Wyoming
Current Conditions -  °F | °C
As of 3:00 PM on Thursday 27 Nov 2014 (Local Time) from KJAC Reporting Station
Overcast Overcast  
Wind Chill:   Ceiling: 7000
Heat Index:   Visibility: 10mi
Dew Point: -2°   Wind: 8mph
Humidity: 53%   Direction: 220°SW
Pressure: 30.17"   Gusts: NA
Location:  43.4143°N, 110.582°W
Report Text: KJAC 272200Z 22007KT 10SM OVC070 07/M02 A3017
Loading
Personal Weather Stations






























Interactive Weather Map New forecast layout! Learn more

10-Day Weather Forecast

Advertisements
Track Severe Weather on mobile